• Join FlightAware (Why Join?)
  • Login
  • US Flag 
Rudolph Flight #1: Arrived! 
04:30AM EST


 

Airport Tracker/Info


-or-


 

Live Flight TrackerFlight Track Log ✈ N30LT ✈ 26-Jul-2014 ✈ KLIT - KADS

Flight Track Log - Related Links

Times and Time Zones

All times are in EDT time to prevent confusion due to time zone crossing. See the N30LT flight status page for this flight to view local times or setup timezone preferences in your user account.

Time Position Orientation Groundspeed Altitude Reporting Facility
EDT Latitude Longitude Course Direction KTS MPH feet Rate Location/Type
11:58AM 34.7008 -92.3119 247° West 153 176 1,000  Level Memphis Center
11:59AM 34.7011 -92.3353 271° West 157 181 1,300 4,440 Climbing Memphis Center
12:00PM 34.6986 -92.3894 267° West 157 181 8,000 3,240 Climbing Memphis Center
12:01PM 34.6936 -92.4425 263° West 157 181 8,000  Level Memphis Center
12:02PM 34.6644 -92.4844 230° Southwest 162 186 8,000  Level Memphis Center
12:03PM 34.6150 -92.5533 239° Southwest  Level FlightAware Approximate
12:03PM 34.6358 -92.5444 240° Southwest 172 198 8,000  Level Memphis Center
12:04PM 34.5921 -92.6054 247° West  Level FlightAware Approximate
12:04PM 34.6169 -92.6033 249° West 182 209 8,000  Level Memphis Center
12:05PM 34.5972 -92.6575 246° West 182 209 8,000  Level Memphis Center
12:06PM 34.5822 -92.7031 248° West 166 191 8,000  Level Memphis Center
12:07PM 34.5681 -92.7436 247° West 140 161 8,000  Level Memphis Center
12:08PM 34.5542 -92.7861 248° West 139 160 8,000  Level Memphis Center
12:09PM 34.5364 -92.8364 247° West 138 159 8,000  Level Memphis Center
12:10PM 34.5136 -92.8850 240° Southwest 153 176 8,000  Level Memphis Center
12:11PM 34.5003 -92.9431 254° West 174 200 8,000  Level Memphis Center
12:12PM 34.4806 -92.9986 247° West 175 201 8,000  Level Memphis Center
12:13PM 34.4608 -93.0539 247° West 177 204 8,000  Level Memphis Center
12:14PM 34.4419 -93.1064 246° West 176 203 8,000  Level Memphis Center
12:15PM 34.4200 -93.1711 248° West 176 203 8,000  Level Memphis Center
12:16PM 34.4011 -93.2258 247° West 176 203 8,000  Level Memphis Center
12:17PM 34.3819 -93.2817 247° West 176 203 8,000  Level Memphis Center
12:18PM 34.3617 -93.3347 245° Southwest 176 203 8,000  Level Memphis Center
12:19PM 34.3417 -93.3883 246° West 201 231 8,000  Level Memphis Center
12:20PM 34.3236 -93.4478 250° West 195 224 8,000  Level Memphis Center
12:22PM 34.3003 -93.5117 246° West 182 209 8,000  Level Memphis Center
12:23PM 34.2806 -93.5656 246° West 180 207 8,000  Level Memphis Center
12:24PM 34.2608 -93.6206 247° West 180 207 8,000  Level Memphis Center
12:25PM 34.2422 -93.6750 248° West 180 207 8,000  Level Memphis Center
12:26PM 34.2222 -93.7306 246° West 180 207 8,000  Level Memphis Center
12:27PM 34.2028 -93.7861 247° West 180 207 8,000  Level Memphis Center
12:28PM 34.1786 -93.8531 246° West 180 207 8,000  Level Memphis Center
12:29PM 34.1594 -93.9094 248° West 180 207 8,000  Level Memphis Center
12:30PM 34.1392 -93.9658 247° West 180 207 8,000  Level Fort Worth Center
12:31PM 34.1203 -94.0219 248° West 180 207 8,000  Level Fort Worth Center
12:32PM 34.0997 -94.0769 246° West 180 207 8,000  Level Fort Worth Center
12:33PM 34.0792 -94.1336 246° West 180 207 8,000  Level Fort Worth Center
12:34PM 34.0558 -94.2017 248° West 182 209 8,000  Level Fort Worth Center
12:35PM 34.0356 -94.2592 247° West 182 209 8,000  Level Fort Worth Center
12:36PM 34.0147 -94.3150 246° West 183 211 8,000  Level Fort Worth Center
12:37PM 33.9936 -94.3722 246° West 183 211 8,000  Level Fort Worth Center
12:38PM 33.9728 -94.4289 246° West 184 212 8,000  Level Fort Worth Center
12:39PM 33.9475 -94.4986 246° West 187 215 8,000  Level Fort Worth Center
12:40PM 33.9269 -94.5567 247° West 187 215 8,000  Level Fort Worth Center
12:41PM 33.9061 -94.6128 246° West 187 215 8,000  Level Fort Worth Center
12:42PM 33.8856 -94.6717 247° West 188 216 8,000  Level Fort Worth Center
12:43PM 33.8642 -94.7289 246° West 188 216 8,000  Level Fort Worth Center
12:44PM 33.8394 -94.7983 247° West 188 216 8,000  Level Fort Worth Center
12:45PM 33.8183 -94.8553 246° West 188 216 8,000  Level Fort Worth Center
12:46PM 33.7958 -94.9136 245° Southwest 188 216 8,000  Level Fort Worth Center
12:47PM 33.7736 -94.9714 245° Southwest 188 216 8,000  Level Fort Worth Center
12:48PM 33.7544 -95.0278 248° West 188 216 8,000  Level Fort Worth Center
12:49PM 33.7342 -95.0847 247° West 188 216 8,000  Level Fort Worth Center
12:50PM 33.7089 -95.1528 246° West 188 216 8,000  Level Fort Worth Center
12:52PM 33.6883 -95.2092 246° West 188 216 8,000  Level Fort Worth Center
12:53PM 33.6667 -95.2656 245° Southwest 187 215 8,000  Level Fort Worth Center
12:54PM 33.6458 -95.3208 246° West 185 213 8,000  Level Fort Worth Center
12:55PM 33.6258 -95.3775 247° West 184 212 8,000  Level Fort Worth Center
12:56PM 33.6022 -95.4442 247° West 184 212 8,000  Level Fort Worth Center
12:57PM 33.5814 -95.4989 245° Southwest 183 211 8,000  Level Fort Worth Center
12:58PM 33.5572 -95.5539 242° Southwest 183 211 8,000  Level Fort Worth Center
12:59PM 33.5347 -95.6156 246° West 184 212 8,000  Level Fort Worth Center
01:00PM 33.5119 -95.6756 246° West 183 211 8,000  Level Fort Worth Center
01:01PM 33.4906 -95.7303 245° Southwest 184 212 8,000  Level Fort Worth Center
01:02PM 33.4697 -95.7914 248° West 185 213 8,000  Level Fort Worth Center
01:03PM 33.4472 -95.8467 244° Southwest 185 213 8,000  Level Fort Worth Center
01:04PM 33.4269 -95.9022 246° West 185 213 8,000  Level Fort Worth Center
01:05PM 33.4042 -95.9619 245° Southwest 184 212 8,000  Level Fort Worth Center
01:06PM 33.3825 -96.0167 245° Southwest 182 209 8,000  Level Fort Worth Center
01:07PM 33.3583 -96.0808 246° West 199 229 8,000  Level Fort Worth Center
01:08PM 33.3339 -96.1442 245° Southwest 206 237 8,000  Level Fort Worth Center
01:09PM 33.3081 -96.2128 246° West 213 245 8,000  Level Fort Worth Center
01:10PM 33.2864 -96.2686 245° Southwest 188 216 8,000  Level Fort Worth Center
01:11PM 33.2650 -96.3250 246° West 178 205 8,000  Level Fort Worth Center
01:12PM 33.2364 -96.3742 235° Southwest 181 208 8,000  Level Fort Worth Center
01:13PM 33.2111 -96.4369 244° Southwest 193 222 8,000  Level Fort Worth Center
01:14PM 33.1914 -96.4853 244° Southwest 166 191 8,000  Level Fort Worth Center
01:15PM 33.1700 -96.5375 244° Southwest 163 188 8,000  Level Fort Worth Center
01:16PM 33.1497 -96.5881 244° Southwest 167 192 8,000  Level Fort Worth Center
01:17PM 33.1294 -96.6381 244° Southwest 157 181 8,000  Level Fort Worth Center
01:18PM 33.1128 -96.6792 244° Southwest 140 161 8,000  Level Fort Worth Center
01:19PM 33.1042 -96.7339 259° West 155 178 8,000  Level Fort Worth Center
01:21PM 33.0964 -96.7822 259° West 152 175 8,000  Level Fort Worth Center
01:22PM 33.0994 -96.8283 275° West 135 155 8,000  Level Fort Worth Center
01:23PM 33.1081 -96.8614 287° West 109 125 8,000  Level Fort Worth Center
01:24PM 33.0750 -96.8592 177° South 110 127 8,000  Level Fort Worth Center
01:25PM 33.0461 -96.8581 178° South 108 124 8,000  Level Fort Worth Center
01:26PM 33.0133 -96.8539 174° South 108 124 8,000  Level Fort Worth Center
01:27PM 32.9844 -96.8425 162° South 109 125 8,000  Level Fort Worth Center